Terminal Aerodrome Forecast
Issued by NWS La Crosse, WI

Home | Current Version | Previous Version | Text Only | Print | Product List | Glossary On
Versions: 1 2 3 4 5 6 7 8 9 10 11 12 13 14 15 16 17 18 19 20 21 22 23 24 25 26 27 28 29 30 31 32 33 34 35 36 37
000
FTUS43 KARX 050525
TAFLSE
TAF
KLSE 050525Z 0506/0606 13006KT P6SM BKN130
      TEMPO 0506/0509 P6SM -SHRA BKN080
     FM051500 17007KT P6SM SCT130
     FM051800 18010KT P6SM SCT035
     FM060000 16008KT P6SM SCT250=

USA.gov is the U.S. government's official web portal to all federal, state and local government web resources and services.